createdAt,value
2019-05-11T00:01:09.842Z,5.00
2019-05-11T00:03:38.299Z,4.72
2019-05-11T00:06:06.794Z,5.45
2019-05-11T00:08:35.249Z,5.45
2019-05-11T00:11:03.677Z,5.37
2019-05-11T00:13:32.112Z,6.12
2019-05-11T00:16:00.555Z,5.37
2019-05-11T00:18:29.009Z,4.80
2019-05-11T00:20:57.476Z,4.65
2019-05-11T00:23:25.919Z,4.83
2019-05-11T00:25:54.356Z,4.72
2019-05-11T00:28:22.783Z,5.42
2019-05-11T00:30:51.284Z,5.85
2019-05-11T00:33:19.727Z,5.78
2019-05-11T00:35:48.169Z,5.30
2019-05-11T00:38:16.609Z,5.58
2019-05-11T00:40:45.146Z,5.92
2019-05-11T00:43:13.575Z,6.05
2019-05-11T00:45:42.012Z,5.65
2019-05-11T00:48:10.537Z,6.45
2019-05-11T00:50:40.063Z,5.65
2019-05-11T00:53:08.785Z,6.03
2019-05-11T00:55:37.220Z,6.10
2019-05-11T00:58:05.645Z,6.10
2019-05-11T01:00:34.094Z,7.40
2019-05-11T01:03:02.518Z,6.65
2019-05-11T01:05:30.964Z,6.42
2019-05-11T01:07:59.400Z,5.58
2019-05-11T01:10:41.124Z,6.05
2019-05-11T01:12:59.551Z,6.08
2019-05-11T01:15:28.066Z,6.85
2019-05-11T01:17:56.570Z,6.05
2019-05-11T01:20:24.994Z,5.72
2019-05-11T01:22:54.980Z,5.85
2019-05-11T01:25:23.403Z,5.83
2019-05-11T01:27:51.852Z,7.28
2019-05-11T01:30:20.278Z,6.17
2019-05-11T01:32:48.720Z,6.40
2019-05-11T01:35:18.695Z,6.60
2019-05-11T01:37:47.145Z,6.25
2019-05-11T01:40:23.104Z,6.42
2019-05-11T01:42:51.590Z,7.05
2019-05-11T01:45:20.022Z,6.97
2019-05-11T01:47:48.452Z,7.15
2019-05-11T01:50:16.900Z,6.92
2019-05-11T01:52:45.338Z,7.12
2019-05-11T01:55:13.868Z,6.95
2019-05-11T01:57:42.315Z,7.22
2019-05-11T02:00:11.182Z,6.87
2019-05-11T02:02:39.806Z,6.95
2019-05-11T02:05:28.446Z,8.53
2019-05-11T02:07:59.332Z,6.90
2019-05-11T02:10:29.694Z,6.53
2019-05-11T02:13:00.937Z,6.90
2019-05-11T02:15:29.515Z,7.58
2019-05-11T02:17:57.959Z,7.50
2019-05-11T02:20:26.391Z,7.33
2019-05-11T02:22:54.834Z,6.35
2019-05-11T02:25:23.276Z,6.90
2019-05-11T02:27:51.724Z,7.05
2019-05-11T02:30:20.309Z,7.78
2019-05-11T02:32:48.901Z,8.13
2019-05-11T02:35:17.423Z,8.23
2019-05-11T02:37:46.664Z,6.95
2019-05-11T02:40:15.736Z,6.92
2019-05-11T02:42:44.175Z,6.80
2019-05-11T02:45:13.174Z,6.87
2019-05-11T02:47:41.598Z,6.60
2019-05-11T02:50:10.219Z,7.03
2019-05-11T02:52:38.989Z,6.83
2019-05-11T02:55:07.970Z,8.15
2019-05-11T02:57:36.414Z,8.35
2019-05-11T03:00:08.099Z,7.85
2019-05-11T03:02:36.552Z,8.25
2019-05-11T03:05:06.996Z,8.25
2019-05-11T03:07:35.506Z,7.30
2019-05-11T03:10:04.695Z,8.63
2019-05-11T03:12:33.127Z,8.78
2019-05-11T03:15:01.575Z,8.45
2019-05-11T03:17:31.657Z,7.17
2019-05-11T03:20:00.115Z,8.30
2019-05-11T03:22:28.617Z,8.25
2019-05-11T03:24:57.055Z,7.47
2019-05-11T03:27:25.487Z,8.80
2019-05-11T03:29:53.924Z,7.80
2019-05-11T03:32:22.365Z,7.55
2019-05-11T03:34:50.791Z,8.33
2019-05-11T03:37:19.225Z,7.60
2019-05-11T03:39:47.705Z,7.60
2019-05-11T03:42:16.155Z,7.83
2019-05-11T03:44:44.588Z,8.20
2019-05-11T03:47:13.022Z,7.55
2019-05-11T03:49:41.455Z,7.95
2019-05-11T03:52:09.904Z,6.92
2019-05-11T03:54:38.346Z,8.08
2019-05-11T03:57:06.770Z,7.12
2019-05-11T03:59:35.219Z,6.58
2019-05-11T04:02:03.721Z,7.42
2019-05-11T04:04:32.159Z,7.47
2019-05-11T04:07:00.595Z,7.28
2019-05-11T04:09:29.049Z,7.70
2019-05-11T04:11:57.492Z,7.33
2019-05-11T04:14:25.944Z,8.00
2019-05-11T04:16:54.377Z,5.95
2019-05-11T04:19:22.817Z,9.15
2019-05-11T04:21:51.261Z,8.13
2019-05-11T04:24:24.718Z,6.35
2019-05-11T04:26:53.149Z,6.90
2019-05-11T04:29:21.612Z,7.65
2019-05-11T04:31:50.115Z,6.78
2019-05-11T04:34:18.559Z,7.90
2019-05-11T04:36:47.073Z,8.85
2019-05-11T04:39:15.588Z,8.10
2019-05-11T04:41:44.012Z,7.75
2019-05-11T04:44:12.461Z,8.50
2019-05-11T04:46:40.902Z,7.90
2019-05-11T04:49:09.358Z,8.13
2019-05-11T04:51:37.845Z,9.40
2019-05-11T04:54:06.290Z,8.13
2019-05-11T04:56:34.724Z,8.88
2019-05-11T04:59:05.968Z,9.03
2019-05-11T05:01:34.410Z,7.90
2019-05-11T05:04:13.299Z,7.40
2019-05-11T05:06:39.027Z,7.20
2019-05-11T05:09:09.944Z,8.90
2019-05-11T05:11:38.590Z,8.38
2019-05-11T05:14:08.403Z,8.65
2019-05-11T05:16:37.199Z,8.10
2019-05-11T05:19:08.613Z,8.80
2019-05-11T05:21:37.085Z,8.45
2019-05-11T05:24:05.520Z,7.92
2019-05-11T05:26:33.963Z,8.78
2019-05-11T05:29:02.398Z,8.55
2019-05-11T05:31:30.836Z,7.70
2019-05-11T05:34:01.393Z,8.48
2019-05-11T05:36:29.460Z,8.50
2019-05-11T05:38:57.904Z,8.33
2019-05-11T05:41:26.422Z,8.73
2019-05-11T05:43:57.292Z,8.03
2019-05-11T05:46:25.749Z,9.50
2019-05-11T05:48:54.174Z,8.68
2019-05-11T05:51:22.619Z,8.95
2019-05-11T05:53:51.059Z,8.28
2019-05-11T05:56:19.517Z,9.13
2019-05-11T05:58:47.942Z,8.10
2019-05-11T06:01:16.384Z,7.42
2019-05-11T06:03:44.825Z,7.20
2019-05-11T06:06:13.253Z,6.70
2019-05-11T06:08:43.315Z,7.08
2019-05-11T06:11:11.917Z,7.30
2019-05-11T06:13:44.999Z,6.90
2019-05-11T06:16:10.520Z,7.03
2019-05-11T06:18:38.992Z,6.35
2019-05-11T06:21:07.432Z,6.90
2019-05-11T06:23:35.900Z,5.67
2019-05-11T06:26:04.386Z,6.60
2019-05-11T06:28:32.850Z,5.58
2019-05-11T06:31:01.294Z,5.35
2019-05-11T06:33:29.738Z,5.42
2019-05-11T06:35:58.182Z,5.22
2019-05-11T06:38:26.614Z,5.28
2019-05-11T06:40:56.599Z,5.92
2019-05-11T06:43:25.047Z,5.35
2019-05-11T06:45:53.484Z,5.10
2019-05-11T06:48:21.921Z,5.12
2019-05-11T06:50:50.620Z,5.00
2019-05-11T06:53:19.181Z,5.03
2019-05-11T06:55:47.708Z,4.80
2019-05-11T06:58:16.138Z,4.72
2019-05-11T07:00:46.866Z,4.17
2019-05-11T07:03:15.305Z,4.40
2019-05-11T07:05:43.746Z,4.70
2019-05-11T07:08:12.247Z,4.60
2019-05-11T07:10:40.770Z,4.55
2019-05-11T07:13:09.195Z,4.90
2019-05-11T07:15:37.647Z,4.20
2019-05-11T07:18:06.140Z,4.75
2019-05-11T07:20:49.557Z,4.85
2019-05-11T07:23:04.910Z,4.75
2019-05-11T07:25:33.472Z,3.90
2019-05-11T07:28:02.279Z,3.67
2019-05-11T07:30:30.903Z,4.10
2019-05-11T07:33:01.098Z,4.42
2019-05-11T07:35:29.514Z,4.75
2019-05-11T07:37:58.263Z,5.17
2019-05-11T07:40:27.925Z,4.75
2019-05-11T07:42:58.783Z,4.97
2019-05-11T07:45:28.337Z,4.55
2019-05-11T07:47:59.020Z,4.08
2019-05-11T07:50:28.425Z,4.50
2019-05-11T07:52:58.886Z,4.65
2019-05-11T07:55:28.208Z,4.53
2019-05-11T07:57:58.544Z,4.55
2019-05-11T08:00:28.373Z,5.05
2019-05-11T08:02:58.510Z,4.28
2019-05-11T08:05:28.383Z,3.75
2019-05-11T08:07:59.302Z,4.87
2019-05-11T08:10:28.195Z,4.08
2019-05-11T08:12:58.739Z,4.03
2019-05-11T08:15:28.351Z,4.47
2019-05-11T08:17:57.843Z,3.90
2019-05-11T08:20:28.048Z,4.20
2019-05-11T08:22:58.744Z,3.72
2019-05-11T08:25:28.677Z,3.33
2019-05-11T08:27:58.810Z,3.50
2019-05-11T08:30:27.860Z,4.42
2019-05-11T08:32:58.220Z,3.72
2019-05-11T08:35:30.866Z,4.03
2019-05-11T08:37:58.242Z,3.85
2019-05-11T08:40:28.916Z,3.83
2019-05-11T08:42:58.270Z,3.37
2019-05-11T08:45:28.029Z,3.40
2019-05-11T08:47:57.909Z,3.33
2019-05-11T08:50:29.016Z,3.87
2019-05-11T08:52:58.235Z,3.33
2019-05-11T08:55:28.782Z,3.65
2019-05-11T08:57:58.586Z,3.50
2019-05-11T09:00:28.356Z,3.33
2019-05-11T09:02:58.232Z,3.52
2019-05-11T09:05:28.033Z,3.30
2019-05-11T09:07:57.815Z,3.30
2019-05-11T09:10:28.082Z,2.80
2019-05-11T09:12:58.922Z,3.40
2019-05-11T09:15:36.942Z,3.00
2019-05-11T09:17:57.799Z,2.75
2019-05-11T09:20:28.345Z,3.05
2019-05-11T09:22:58.752Z,3.35
2019-05-11T09:25:27.763Z,3.62
2019-05-11T09:27:58.520Z,3.75
2019-05-11T09:30:28.651Z,3.42
2019-05-11T09:32:58.127Z,3.62
2019-05-11T09:35:29.030Z,2.60
2019-05-11T09:37:58.808Z,2.87
2019-05-11T09:40:28.395Z,2.52
2019-05-11T09:42:58.474Z,3.15
2019-05-11T09:45:27.788Z,2.90
2019-05-11T09:47:58.205Z,3.30
2019-05-11T09:50:28.403Z,3.37
2019-05-11T09:52:58.109Z,3.33
2019-05-11T09:55:28.466Z,2.92
2019-05-11T09:57:58.010Z,3.33
2019-05-11T10:00:28.234Z,3.65
2019-05-11T10:02:57.670Z,2.65
2019-05-11T10:05:28.442Z,2.80
2019-05-11T10:07:58.707Z,2.67
2019-05-11T10:10:28.789Z,2.50
2019-05-11T10:12:58.781Z,2.65
2019-05-11T10:15:27.956Z,3.02
2019-05-11T10:17:58.229Z,3.05
2019-05-11T10:20:28.687Z,2.83
2019-05-11T10:22:57.929Z,3.02
2019-05-11T10:25:28.723Z,2.40
2019-05-11T10:27:58.034Z,2.72
2019-05-11T10:30:28.017Z,2.00
2019-05-11T10:32:57.788Z,2.67
2019-05-11T10:35:28.181Z,2.85
2019-05-11T10:37:58.339Z,2.50
2019-05-11T10:40:28.173Z,2.10
2019-05-11T10:42:59.154Z,2.92
2019-05-11T10:45:28.514Z,2.45
2019-05-11T10:48:01.185Z,2.27
2019-05-11T10:50:29.128Z,2.30
2019-05-11T10:52:59.492Z,2.55
2019-05-11T10:55:33.172Z,2.00
2019-05-11T10:58:01.607Z,3.25
2019-05-11T11:00:30.148Z,2.55
2019-05-11T11:02:58.578Z,3.08
2019-05-11T11:05:27.955Z,2.92
2019-05-11T11:07:58.662Z,1.95
2019-05-11T11:10:28.628Z,1.90
2019-05-11T11:12:57.780Z,2.37
2019-05-11T11:15:28.615Z,2.20
2019-05-11T11:17:57.914Z,2.98
2019-05-11T11:20:28.025Z,2.05
2019-05-11T11:22:58.402Z,1.62
2019-05-11T11:25:28.423Z,2.30
2019-05-11T11:27:57.819Z,1.87
2019-05-11T11:30:28.561Z,2.02
2019-05-11T11:32:58.777Z,2.20
2019-05-11T11:35:27.918Z,1.75
2019-05-11T11:37:58.490Z,2.22
2019-05-11T11:40:28.217Z,1.90
2019-05-11T11:42:58.069Z,2.20
2019-05-11T11:45:28.770Z,1.95
2019-05-11T11:47:58.050Z,2.20
2019-05-11T11:50:28.310Z,1.80
2019-05-11T11:52:57.889Z,1.67
2019-05-11T11:55:28.982Z,2.02
2019-05-11T11:57:58.841Z,1.85
2019-05-11T12:00:28.801Z,2.05
2019-05-11T12:02:58.124Z,2.00
2019-05-11T12:05:28.293Z,1.92
2019-05-11T12:07:58.007Z,1.82
2019-05-11T12:10:29.294Z,1.65
2019-05-11T12:12:58.224Z,1.90
2019-05-11T12:15:28.231Z,1.70
2019-05-11T12:17:58.797Z,1.80
2019-05-11T12:20:28.658Z,1.70
2019-05-11T12:22:58.144Z,1.60
2019-05-11T12:25:27.740Z,1.70
2019-05-11T12:27:57.727Z,1.52
2019-05-11T12:30:28.377Z,1.70
2019-05-11T12:32:57.689Z,2.22
2019-05-11T12:35:28.354Z,2.42
2019-05-11T12:37:58.516Z,2.10
2019-05-11T12:40:28.263Z,1.70
2019-05-11T12:42:59.022Z,2.08
2019-05-11T12:45:29.386Z,1.57
2019-05-11T12:47:58.664Z,1.62
2019-05-11T12:50:28.633Z,1.70
2019-05-11T12:52:58.842Z,1.67
2019-05-11T12:55:28.661Z,1.98
2019-05-11T12:57:57.949Z,2.20
2019-05-11T13:00:31.238Z,1.95
2019-05-11T13:02:58.722Z,1.57
2019-05-11T13:05:28.529Z,1.90
2019-05-11T13:07:58.676Z,1.37
2019-05-11T13:10:28.283Z,1.57
2019-05-11T13:12:58.093Z,2.00
2019-05-11T13:15:28.143Z,1.87
2019-05-11T13:17:58.140Z,1.90
2019-05-11T13:20:28.548Z,1.80
2019-05-11T13:22:58.777Z,2.08
2019-05-11T13:25:28.264Z,1.80
2019-05-11T13:27:58.517Z,1.90
2019-05-11T13:30:27.862Z,1.40
2019-05-11T13:32:57.926Z,1.75
2019-05-11T13:35:28.571Z,1.50
2019-05-11T13:37:58.465Z,1.60
2019-05-11T13:40:27.777Z,1.80
2019-05-11T13:42:58.194Z,2.10
2019-05-11T13:45:28.272Z,1.52
2019-05-11T13:47:59.199Z,1.57
2019-05-11T13:50:26.795Z,1.50
2019-05-11T13:52:55.319Z,1.60
2019-05-11T13:55:23.767Z,1.47
2019-05-11T13:57:52.198Z,1.90
2019-05-11T14:00:20.656Z,2.10
2019-05-11T14:02:49.084Z,1.75
2019-05-11T14:05:17.983Z,1.42
2019-05-11T14:07:48.362Z,1.72
2019-05-11T14:10:18.053Z,1.90
2019-05-11T14:12:47.768Z,1.57
2019-05-11T14:15:18.123Z,1.77
2019-05-11T14:17:48.546Z,2.10
2019-05-11T14:20:19.011Z,1.50
2019-05-11T14:22:48.723Z,1.85
2019-05-11T14:25:18.522Z,1.77
2019-05-11T14:27:48.037Z,1.60
2019-05-11T14:30:18.409Z,1.50
2019-05-11T14:32:47.802Z,1.55
2019-05-11T14:35:18.611Z,1.35
2019-05-11T14:37:48.666Z,1.40
2019-05-11T14:40:17.814Z,1.42
2019-05-11T14:42:48.732Z,1.40
2019-05-11T14:45:18.738Z,1.40
2019-05-11T14:47:47.809Z,1.37
2019-05-11T14:50:18.558Z,1.62
2019-05-11T14:52:48.863Z,2.00
2019-05-11T14:55:18.428Z,1.70
2019-05-11T14:57:48.563Z,1.80
2019-05-11T15:00:18.530Z,2.25
2019-05-11T15:02:49.134Z,2.27
2019-05-11T15:05:20.095Z,1.62
2019-05-11T15:07:52.046Z,1.60
2019-05-11T15:10:20.350Z,1.90
2019-05-11T15:12:49.056Z,2.30
2019-05-11T15:15:18.843Z,1.75
2019-05-11T15:17:49.241Z,1.65
2019-05-11T15:20:17.966Z,1.60
2019-05-11T15:22:48.609Z,1.50
2019-05-11T15:25:19.428Z,1.60
2019-05-11T15:27:48.727Z,1.45
2019-05-11T15:30:18.306Z,2.15
2019-05-11T15:32:48.235Z,1.40
2019-05-11T15:35:18.653Z,1.65
2019-05-11T15:37:47.956Z,2.55
2019-05-11T15:40:21.144Z,1.67
2019-05-11T15:42:49.592Z,1.85
2019-05-11T15:45:18.952Z,1.52
2019-05-11T15:47:48.662Z,1.52
2019-05-11T15:50:19.094Z,1.37
2019-05-11T15:52:48.810Z,1.62
2019-05-11T15:55:18.850Z,1.70
2019-05-11T15:57:48.393Z,1.92
2019-05-11T16:00:17.892Z,1.70
2019-05-11T16:02:48.740Z,1.30
2019-05-11T16:05:18.320Z,1.87
2019-05-11T16:07:48.883Z,1.50
2019-05-11T16:10:18.701Z,1.52
2019-05-11T16:12:48.635Z,1.60
2019-05-11T16:15:19.413Z,1.67
2019-05-11T16:17:48.797Z,1.30
2019-05-11T16:20:18.300Z,1.82
2019-05-11T16:22:48.006Z,1.40
2019-05-11T16:25:19.219Z,1.75
2019-05-11T16:27:47.145Z,1.30
2019-05-11T16:30:18.366Z,1.40
2019-05-11T16:32:48.115Z,2.27
2019-05-11T16:35:17.989Z,1.50
2019-05-11T16:37:48.639Z,1.85
2019-05-11T16:40:20.175Z,1.82
2019-05-11T16:42:47.916Z,1.92
2019-05-11T16:45:19.479Z,1.85
2019-05-11T16:47:48.403Z,1.67
2019-05-11T16:50:18.021Z,1.75
2019-05-11T16:52:48.239Z,1.67
2019-05-11T16:55:18.268Z,1.90
2019-05-11T16:57:48.368Z,1.92
2019-05-11T17:00:17.462Z,2.05
2019-05-11T17:02:49.323Z,1.75
2019-05-11T17:05:25.975Z,1.32
2019-05-11T17:07:48.487Z,2.08
2019-05-11T17:10:17.901Z,1.47
2019-05-11T17:12:48.417Z,1.80
2019-05-11T17:15:18.704Z,2.60
2019-05-11T17:17:48.616Z,1.50
2019-05-11T17:20:19.096Z,1.52
2019-05-11T17:22:48.283Z,1.85
2019-05-11T17:25:19.305Z,1.75
2019-05-11T17:27:48.705Z,1.55
2019-05-11T17:30:19.253Z,1.70
2019-05-11T17:32:49.162Z,1.25
2019-05-11T17:35:18.247Z,1.30
2019-05-11T17:37:48.500Z,1.40
2019-05-11T17:40:20.627Z,1.40
2019-05-11T17:42:53.246Z,1.55
2019-05-11T17:45:20.263Z,1.67
2019-05-11T17:47:48.700Z,3.05
2019-05-11T17:50:19.217Z,1.92
2019-05-11T17:52:48.055Z,1.25
2019-05-11T17:55:18.461Z,1.55
2019-05-11T17:57:49.598Z,1.55
2019-05-11T18:00:20.034Z,1.50
2019-05-11T18:02:49.308Z,1.22
2019-05-11T18:05:18.095Z,1.40
2019-05-11T18:07:46.666Z,1.87
2019-05-11T18:10:18.009Z,1.80
2019-05-11T18:12:45.613Z,1.40
2019-05-11T18:15:14.307Z,1.45
2019-05-11T18:17:42.825Z,1.50
2019-05-11T18:20:16.731Z,2.12
2019-05-11T18:22:41.644Z,1.42
2019-05-11T18:25:10.529Z,2.52
2019-05-11T18:27:38.996Z,1.40
2019-05-11T18:30:09.697Z,4.92
2019-05-11T18:32:39.703Z,1.17
2019-05-11T18:35:08.775Z,1.57
2019-05-11T18:37:38.932Z,1.35
2019-05-11T18:40:07.793Z,1.45
2019-05-11T18:42:39.183Z,1.55
2019-05-11T18:45:08.457Z,1.50
2019-05-11T18:47:38.147Z,1.62
2019-05-11T18:50:08.002Z,1.40
2019-05-11T18:52:36.526Z,1.15
2019-05-11T18:55:08.188Z,1.30
2019-05-11T18:57:38.216Z,1.40
2019-05-11T19:00:08.118Z,1.35
2019-05-11T19:02:38.551Z,1.57
2019-05-11T19:05:07.192Z,1.65
2019-05-11T19:07:35.713Z,1.40
2019-05-11T19:10:08.419Z,1.22
2019-05-11T19:12:37.790Z,1.25
2019-05-11T19:15:08.859Z,1.60
2019-05-11T19:17:38.466Z,2.02
2019-05-11T19:20:08.976Z,1.32
2019-05-11T19:22:38.472Z,1.37
2019-05-11T19:25:09.060Z,1.47
2019-05-11T19:27:37.689Z,1.80
2019-05-11T19:30:09.215Z,1.40
2019-05-11T19:32:38.382Z,1.40
2019-05-11T19:35:08.879Z,1.80
2019-05-11T19:37:38.856Z,1.65
2019-05-11T19:40:09.329Z,1.37
2019-05-11T19:42:45.497Z,1.40
2019-05-11T19:45:14.019Z,1.72
2019-05-11T19:47:42.536Z,1.32
2019-05-11T19:50:10.973Z,1.62
2019-05-11T19:52:39.418Z,2.02
2019-05-11T19:55:08.557Z,1.30
2019-05-11T19:57:39.150Z,1.80
2019-05-11T20:00:10.023Z,1.50
2019-05-11T20:02:39.031Z,1.35
2019-05-11T20:05:07.752Z,1.60
2019-05-11T20:07:37.774Z,1.95
2019-05-11T20:10:07.990Z,2.15
2019-05-11T20:12:38.218Z,1.17
2019-05-11T20:15:08.239Z,1.37
2019-05-11T20:17:39.029Z,1.47
2019-05-11T20:20:08.892Z,1.57
2019-05-11T20:22:38.975Z,1.95
2019-05-11T20:25:09.596Z,1.82
2019-05-11T20:27:38.809Z,1.57
2019-05-11T20:30:08.634Z,1.90
2019-05-11T20:32:38.836Z,1.55
2019-05-11T20:35:08.623Z,1.57
2019-05-11T20:37:38.393Z,2.02
2019-05-11T20:40:09.263Z,1.70
2019-05-11T20:42:38.097Z,1.85
2019-05-11T20:45:07.917Z,1.77
2019-05-11T20:47:38.174Z,1.85
2019-05-11T20:50:07.880Z,1.50
2019-05-11T20:52:39.208Z,2.30
2019-05-11T20:55:08.792Z,2.20
2019-05-11T20:57:39.191Z,2.17
2019-05-11T21:00:09.363Z,1.67
2019-05-11T21:02:38.245Z,1.50
2019-05-11T21:05:09.030Z,1.62
2019-05-11T21:07:38.745Z,2.22
2019-05-11T21:10:08.765Z,1.52
2019-05-11T21:12:38.683Z,1.72
2019-05-11T21:15:09.250Z,1.87
2019-05-11T21:17:37.765Z,2.12
2019-05-11T21:20:09.469Z,2.00
2019-05-11T21:22:40.444Z,2.17
2019-05-11T21:25:09.486Z,2.67
2019-05-11T21:27:38.555Z,3.05
2019-05-11T21:30:10.880Z,2.30
2019-05-11T21:32:40.930Z,1.87
2019-05-11T21:35:09.560Z,2.70
2019-05-11T21:37:38.977Z,3.15
2019-05-11T21:40:08.870Z,3.60
2019-05-11T21:42:39.102Z,3.15
2019-05-11T21:45:09.742Z,3.25
2019-05-11T21:47:39.048Z,2.87
2019-05-11T21:50:09.476Z,3.30
2019-05-11T21:52:38.688Z,2.95
2019-05-11T21:55:09.684Z,3.20
2019-05-11T21:57:38.518Z,3.27
2019-05-11T22:00:09.768Z,2.80
2019-05-11T22:02:38.865Z,2.50
2019-05-11T22:05:09.218Z,2.50
2019-05-11T22:07:38.836Z,3.15
2019-05-11T22:10:09.625Z,2.33
2019-05-11T22:12:39.025Z,2.98
2019-05-11T22:15:10.094Z,3.02
2019-05-11T22:17:39.690Z,3.15
2019-05-11T22:20:09.800Z,2.80
2019-05-11T22:22:39.403Z,3.00
2019-05-11T22:25:09.168Z,2.95
2019-05-11T22:27:38.843Z,3.02
2019-05-11T22:30:08.657Z,3.30
2019-05-11T22:32:38.311Z,3.60
2019-05-11T22:35:08.833Z,3.65
2019-05-11T22:37:38.610Z,4.10
2019-05-11T22:40:08.574Z,4.95
2019-05-11T22:42:37.618Z,3.35
2019-05-11T22:45:09.607Z,2.75
2019-05-11T22:47:39.241Z,3.12
2019-05-11T22:50:09.548Z,3.52
2019-05-11T22:52:40.476Z,3.02
2019-05-11T22:55:12.084Z,3.22
2019-05-11T22:57:40.395Z,3.77
2019-05-11T23:00:09.679Z,4.15
2019-05-11T23:02:38.365Z,3.75
2019-05-11T23:05:08.628Z,4.47
2019-05-11T23:07:41.151Z,4.30
2019-05-11T23:10:09.565Z,4.55
2019-05-11T23:12:38.558Z,5.12
2019-05-11T23:15:09.949Z,4.47
2019-05-11T23:17:38.799Z,4.33
2019-05-11T23:20:09.036Z,4.33
2019-05-11T23:22:57.884Z,4.95
2019-05-11T23:25:19.920Z,3.85
2019-05-11T23:27:49.992Z,4.12
2019-05-11T23:30:20.341Z,3.22
2019-05-11T23:32:49.813Z,2.27
2019-05-11T23:35:19.038Z,2.47
2019-05-11T23:37:49.596Z,2.33
2019-05-11T23:40:20.055Z,2.20
2019-05-11T23:42:49.238Z,2.22
2019-05-11T23:45:19.046Z,2.30
2019-05-11T23:47:58.911Z,2.58
2019-05-11T23:50:28.313Z,2.37
2019-05-11T23:53:06.058Z,1.90
2019-05-11T23:55:29.028Z,2.83
2019-05-11T23:57:57.875Z,2.67
